Accueil
METAR-TAF:

METAR-TAF

Aéroports :

Noorvik, Alaska, États-Unis

latitude: 66-49-03N, longitude: 161-01-20W, altitude: 17 m

Observation

Le bulletin a été fait il y a 47 minutes, à 17:56 UTC
Vent 17 kt de est/sud-est avec des rafales jusqu'à 22 kt
Température 13°C
Humidité 88%
Pression 999 hPa
Visibilité: 16.1 km
Quelques nuages à une hauteur de 1300 ft
Nuages fragmentés à une hauteur de 7000 ft
Nuages fragmentés à une hauteur de 8500 ft

METAR: PFNO 131756Z AUTO 12017G22KT 10SM FEW013 BKN070 BKN085 13/11 A2951 RMK AO2 SLP073 60000 T01330111 10133 20117 53003 $

Heure: 10:43 (18:43 UTC)


TAF: absent

Observations et prévisions météorologiques de plus de 4000 aéroports (messages METAR et TAF).

Les stations disponibles sont représentées par des disques jaunes et rouges sur la carte.

Passer la souris dessus pour voir le nom de la station.

Cliquer dessus pour voir les observations et prévisions météorologiques.

Pour changer de carte: cliquez sur les boutons verts avec une croix noire pour zoomer, sur le bouton vert avec un tiret pour effectuer un zoom arrière, ou sur les flèches vertes pour les cartes adjacentes.


METAR-TAF: